sensor_id;sensor_type;location;lat;lon;timestamp;P1;durP1;ratioP1;P2;durP2;ratioP2
17864;SDS011;9058;52.018;4.202;2023-03-24T00:01:29;7.10;;;5.35;;
17864;SDS011;9058;52.018;4.202;2023-03-24T00:03:55;11.10;;;4.97;;
17864;SDS011;9058;52.018;4.202;2023-03-24T00:06:23;8.98;;;6.40;;
17864;SDS011;9058;52.018;4.202;2023-03-24T00:08:50;8.18;;;5.05;;
17864;SDS011;9058;52.018;4.202;2023-03-24T00:11:17;8.75;;;5.68;;
17864;SDS011;9058;52.018;4.202;2023-03-24T00:13:45;7.78;;;5.43;;
17864;SDS011;9058;52.018;4.202;2023-03-24T00:16:16;9.70;;;5.43;;
17864;SDS011;9058;52.018;4.202;2023-03-24T00:18:43;9.43;;;5.13;;
17864;SDS011;9058;52.018;4.202;2023-03-24T00:21:14;8.52;;;5.20;;
17864;SDS011;9058;52.018;4.202;2023-03-24T00:23:42;8.43;;;5.35;;
17864;SDS011;9058;52.018;4.202;2023-03-24T00:26:12;8.05;;;4.70;;
17864;SDS011;9058;52.018;4.202;2023-03-24T00:28:41;9.00;;;4.95;;
17864;SDS011;9058;52.018;4.202;2023-03-24T00:31:08;9.07;;;4.95;;
17864;SDS011;9058;52.018;4.202;2023-03-24T00:33:40;9.80;;;5.03;;
17864;SDS011;9058;52.018;4.202;2023-03-24T00:36:09;7.57;;;4.00;;
17864;SDS011;9058;52.018;4.202;2023-03-24T00:38:38;6.88;;;4.20;;
17864;SDS011;9058;52.018;4.202;2023-03-24T00:41:05;9.00;;;4.43;;
17864;SDS011;9058;52.018;4.202;2023-03-24T00:43:32;6.50;;;3.67;;
17864;SDS011;9058;52.018;4.202;2023-03-24T00:45:59;5.30;;;4.20;;
17864;SDS011;9058;52.018;4.202;2023-03-24T00:48:26;6.03;;;4.38;;
17864;SDS011;9058;52.018;4.202;2023-03-24T00:50:54;4.05;;;3.63;;
17864;SDS011;9058;52.018;4.202;2023-03-24T00:53:21;6.95;;;3.88;;
17864;SDS011;9058;52.018;4.202;2023-03-24T00:55:50;15.65;;;3.67;;
17864;SDS011;9058;52.018;4.202;2023-03-24T00:58:17;7.60;;;4.32;;
17864;SDS011;9058;52.018;4.202;2023-03-24T01:00:44;4.15;;;3.42;;
17864;SDS011;9058;52.018;4.202;2023-03-24T01:03:11;10.05;;;3.60;;
17864;SDS011;9058;52.018;4.202;2023-03-24T01:05:38;6.25;;;3.60;;
17864;SDS011;9058;52.018;4.202;2023-03-24T01:08:07;4.97;;;3.35;;
17864;SDS011;9058;52.018;4.202;2023-03-24T01:10:35;5.28;;;3.42;;
17864;SDS011;9058;52.018;4.202;2023-03-24T01:13:06;5.72;;;3.30;;
17864;SDS011;9058;52.018;4.202;2023-03-24T01:15:34;4.60;;;3.10;;
17864;SDS011;9058;52.018;4.202;2023-03-24T01:18:02;6.55;;;3.45;;
17864;SDS011;9058;52.018;4.202;2023-03-24T01:20:29;5.22;;;3.35;;
17864;SDS011;9058;52.018;4.202;2023-03-24T01:22:58;7.95;;;3.53;;
17864;SDS011;9058;52.018;4.202;2023-03-24T01:25:26;7.70;;;3.85;;
17864;SDS011;9058;52.018;4.202;2023-03-24T01:27:53;9.15;;;3.90;;
17864;SDS011;9058;52.018;4.202;2023-03-24T01:30:20;9.60;;;3.15;;
17864;SDS011;9058;52.018;4.202;2023-03-24T01:32:47;15.43;;;4.07;;
17864;SDS011;9058;52.018;4.202;2023-03-24T01:35:14;12.57;;;3.78;;
17864;SDS011;9058;52.018;4.202;2023-03-24T01:37:40;14.93;;;5.05;;
17864;SDS011;9058;52.018;4.202;2023-03-24T01:40:08;14.32;;;3.60;;
17864;SDS011;9058;52.018;4.202;2023-03-24T01:42:37;10.32;;;2.92;;
17864;SDS011;9058;52.018;4.202;2023-03-24T01:47:45;6.88;;;3.17;;
17864;SDS011;9058;52.018;4.202;2023-03-24T01:50:12;9.23;;;2.03;;
17864;SDS011;9058;52.018;4.202;2023-03-24T01:52:39;8.88;;;2.33;;
17864;SDS011;9058;52.018;4.202;2023-03-24T01:55:08;11.88;;;2.55;;
17864;SDS011;9058;52.018;4.202;2023-03-24T01:57:40;13.95;;;2.70;;
17864;SDS011;9058;52.018;4.202;2023-03-24T02:00:09;9.90;;;2.78;;
17864;SDS011;9058;52.018;4.202;2023-03-24T02:02:37;10.95;;;2.30;;
17864;SDS011;9058;52.018;4.202;2023-03-24T02:05:05;10.75;;;2.95;;
17864;SDS011;9058;52.018;4.202;2023-03-24T02:07:35;11.52;;;3.67;;
17864;SDS011;9058;52.018;4.202;2023-03-24T02:10:04;10.43;;;2.60;;
17864;SDS011;9058;52.018;4.202;2023-03-24T02:12:31;8.68;;;3.03;;
17864;SDS011;9058;52.018;4.202;2023-03-24T02:14:59;13.32;;;3.28;;
17864;SDS011;9058;52.018;4.202;2023-03-24T02:17:31;10.30;;;3.55;;
17864;SDS011;9058;52.018;4.202;2023-03-24T02:20:10;12.75;;;2.83;;
17864;SDS011;9058;52.018;4.202;2023-03-24T02:22:51;12.10;;;2.90;;
17864;SDS011;9058;52.018;4.202;2023-03-24T02:25:28;10.07;;;3.08;;
17864;SDS011;9058;52.018;4.202;2023-03-24T02:28:11;10.70;;;2.50;;
17864;SDS011;9058;52.018;4.202;2023-03-24T02:30:51;9.55;;;2.40;;
17864;SDS011;9058;52.018;4.202;2023-03-24T02:33:36;15.13;;;2.97;;
17864;SDS011;9058;52.018;4.202;2023-03-24T02:36:12;7.70;;;2.22;;
17864;SDS011;9058;52.018;4.202;2023-03-24T02:38:51;14.40;;;3.00;;
17864;SDS011;9058;52.018;4.202;2023-03-24T02:41:21;11.10;;;2.90;;
17864;SDS011;9058;52.018;4.202;2023-03-24T02:43:51;11.38;;;2.58;;
17864;SDS011;9058;52.018;4.202;2023-03-24T02:46:23;12.88;;;3.20;;
17864;SDS011;9058;52.018;4.202;2023-03-24T02:48:56;11.50;;;3.60;;
17864;SDS011;9058;52.018;4.202;2023-03-24T02:51:26;15.82;;;3.17;;
17864;SDS011;9058;52.018;4.202;2023-03-24T02:53:58;17.63;;;3.25;;
17864;SDS011;9058;52.018;4.202;2023-03-24T02:56:32;20.42;;;3.03;;
17864;SDS011;9058;52.018;4.202;2023-03-24T02:59:02;16.67;;;3.53;;
17864;SDS011;9058;52.018;4.202;2023-03-24T03:01:29;15.48;;;3.03;;
17864;SDS011;9058;52.018;4.202;2023-03-24T03:04:00;16.73;;;3.38;;
17864;SDS011;9058;52.018;4.202;2023-03-24T03:06:28;17.33;;;3.35;;
17864;SDS011;9058;52.018;4.202;2023-03-24T03:08:57;17.30;;;3.63;;
17864;SDS011;9058;52.018;4.202;2023-03-24T03:11:26;14.93;;;2.70;;
17864;SDS011;9058;52.018;4.202;2023-03-24T03:13:55;12.13;;;2.88;;
17864;SDS011;9058;52.018;4.202;2023-03-24T03:16:24;11.07;;;3.10;;
17864;SDS011;9058;52.018;4.202;2023-03-24T03:18:59;9.70;;;2.50;;
17864;SDS011;9058;52.018;4.202;2023-03-24T03:21:29;15.90;;;2.72;;
17864;SDS011;9058;52.018;4.202;2023-03-24T03:23:59;14.93;;;3.90;;
17864;SDS011;9058;52.018;4.202;2023-03-24T03:26:28;15.20;;;3.72;;
17864;SDS011;9058;52.018;4.202;2023-03-24T03:28:59;14.13;;;3.90;;
17864;SDS011;9058;52.018;4.202;2023-03-24T03:31:28;16.15;;;3.63;;
17864;SDS011;9058;52.018;4.202;2023-03-24T03:33:59;14.55;;;3.08;;
17864;SDS011;9058;52.018;4.202;2023-03-24T03:36:30;15.88;;;3.90;;
17864;SDS011;9058;52.018;4.202;2023-03-24T03:39:02;22.67;;;5.18;;
17864;SDS011;9058;52.018;4.202;2023-03-24T03:41:30;21.10;;;4.15;;
17864;SDS011;9058;52.018;4.202;2023-03-24T03:44:00;17.42;;;3.85;;
17864;SDS011;9058;52.018;4.202;2023-03-24T03:46:27;19.30;;;3.42;;
17864;SDS011;9058;52.018;4.202;2023-03-24T03:48:53;17.02;;;3.40;;
17864;SDS011;9058;52.018;4.202;2023-03-24T03:51:20;18.13;;;4.32;;
17864;SDS011;9058;52.018;4.202;2023-03-24T03:53:47;18.88;;;3.95;;
17864;SDS011;9058;52.018;4.202;2023-03-24T03:56:16;24.58;;;4.63;;
17864;SDS011;9058;52.018;4.202;2023-03-24T03:58:43;17.92;;;3.33;;
17864;SDS011;9058;52.018;4.202;2023-03-24T04:01:12;19.45;;;3.90;;
17864;SDS011;9058;52.018;4.202;2023-03-24T04:03:51;19.40;;;3.50;;
17864;SDS011;9058;52.018;4.202;2023-03-24T04:06:23;21.98;;;3.95;;
17864;SDS011;9058;52.018;4.202;2023-03-24T04:08:53;23.48;;;3.63;;
17864;SDS011;9058;52.018;4.202;2023-03-24T04:11:30;19.92;;;3.50;;
17864;SDS011;9058;52.018;4.202;2023-03-24T04:14:01;23.83;;;4.78;;
17864;SDS011;9058;52.018;4.202;2023-03-24T04:16:36;18.38;;;4.00;;
17864;SDS011;9058;52.018;4.202;2023-03-24T04:19:10;21.67;;;4.97;;
17864;SDS011;9058;52.018;4.202;2023-03-24T04:21:42;26.27;;;6.22;;
17864;SDS011;9058;52.018;4.202;2023-03-24T04:24:16;25.17;;;5.00;;
17864;SDS011;9058;52.018;4.202;2023-03-24T04:26:46;26.77;;;4.88;;
17864;SDS011;9058;52.018;4.202;2023-03-24T04:29:14;36.40;;;5.78;;
17864;SDS011;9058;52.018;4.202;2023-03-24T04:31:46;17.50;;;3.63;;
17864;SDS011;9058;52.018;4.202;2023-03-24T04:34:17;20.40;;;4.35;;
17864;SDS011;9058;52.018;4.202;2023-03-24T04:36:46;23.23;;;4.10;;
17864;SDS011;9058;52.018;4.202;2023-03-24T04:39:15;27.92;;;4.75;;
17864;SDS011;9058;52.018;4.202;2023-03-24T04:41:43;26.98;;;4.82;;
17864;SDS011;9058;52.018;4.202;2023-03-24T04:44:11;29.60;;;4.90;;
17864;SDS011;9058;52.018;4.202;2023-03-24T04:46:47;29.88;;;6.65;;
17864;SDS011;9058;52.018;4.202;2023-03-24T04:49:15;25.15;;;4.18;;
17864;SDS011;9058;52.018;4.202;2023-03-24T04:51:43;29.98;;;5.63;;
17864;SDS011;9058;52.018;4.202;2023-03-24T04:54:11;15.73;;;4.18;;
17864;SDS011;9058;52.018;4.202;2023-03-24T04:56:38;29.88;;;4.88;;
17864;SDS011;9058;52.018;4.202;2023-03-24T04:59:06;20.23;;;4.43;;
17864;SDS011;9058;52.018;4.202;2023-03-24T05:01:33;26.50;;;5.63;;
17864;SDS011;9058;52.018;4.202;2023-03-24T05:04:03;27.52;;;4.60;;
17864;SDS011;9058;52.018;4.202;2023-03-24T05:06:30;21.05;;;5.07;;
17864;SDS011;9058;52.018;4.202;2023-03-24T05:08:58;23.65;;;4.68;;
17864;SDS011;9058;52.018;4.202;2023-03-24T05:11:25;19.00;;;4.07;;
17864;SDS011;9058;52.018;4.202;2023-03-24T05:13:53;27.02;;;5.03;;
17864;SDS011;9058;52.018;4.202;2023-03-24T05:16:20;20.80;;;3.75;;
17864;SDS011;9058;52.018;4.202;2023-03-24T05:18:46;28.48;;;3.95;;
17864;SDS011;9058;52.018;4.202;2023-03-24T05:21:14;25.75;;;5.03;;
17864;SDS011;9058;52.018;4.202;2023-03-24T05:23:51;25.92;;;4.63;;
17864;SDS011;9058;52.018;4.202;2023-03-24T05:26:17;22.27;;;4.57;;
17864;SDS011;9058;52.018;4.202;2023-03-24T05:28:44;22.33;;;4.78;;
17864;SDS011;9058;52.018;4.202;2023-03-24T05:31:10;22.55;;;4.35;;
17864;SDS011;9058;52.018;4.202;2023-03-24T05:33:37;22.42;;;4.97;;
17864;SDS011;9058;52.018;4.202;2023-03-24T05:36:04;22.48;;;3.72;;
17864;SDS011;9058;52.018;4.202;2023-03-24T05:38:32;34.78;;;6.55;;
17864;SDS011;9058;52.018;4.202;2023-03-24T05:40:59;17.52;;;3.85;;
17864;SDS011;9058;52.018;4.202;2023-03-24T05:43:26;24.55;;;5.75;;
17864;SDS011;9058;52.018;4.202;2023-03-24T05:45:56;28.23;;;4.32;;
17864;SDS011;9058;52.018;4.202;2023-03-24T05:48:24;27.10;;;5.50;;
17864;SDS011;9058;52.018;4.202;2023-03-24T05:50:51;26.05;;;4.50;;
17864;SDS011;9058;52.018;4.202;2023-03-24T05:53:18;27.23;;;4.57;;
17864;SDS011;9058;52.018;4.202;2023-03-24T05:55:46;31.42;;;4.90;;
17864;SDS011;9058;52.018;4.202;2023-03-24T05:58:12;28.40;;;4.32;;
17864;SDS011;9058;52.018;4.202;2023-03-24T06:00:40;30.02;;;5.15;;
17864;SDS011;9058;52.018;4.202;2023-03-24T06:03:07;23.77;;;5.47;;
17864;SDS011;9058;52.018;4.202;2023-03-24T06:05:34;24.42;;;5.95;;
17864;SDS011;9058;52.018;4.202;2023-03-24T06:08:01;26.52;;;4.60;;
17864;SDS011;9058;52.018;4.202;2023-03-24T06:10:28;22.30;;;4.13;;
17864;SDS011;9058;52.018;4.202;2023-03-24T06:12:56;21.27;;;3.88;;
17864;SDS011;9058;52.018;4.202;2023-03-24T06:15:23;24.55;;;4.50;;
17864;SDS011;9058;52.018;4.202;2023-03-24T06:17:51;20.58;;;4.50;;
17864;SDS011;9058;52.018;4.202;2023-03-24T06:20:18;25.52;;;5.57;;
17864;SDS011;9058;52.018;4.202;2023-03-24T06:22:45;26.85;;;4.88;;
17864;SDS011;9058;52.018;4.202;2023-03-24T06:25:13;26.65;;;4.78;;
17864;SDS011;9058;52.018;4.202;2023-03-24T06:27:41;20.73;;;4.40;;
17864;SDS011;9058;52.018;4.202;2023-03-24T06:30:12;23.50;;;5.47;;
17864;SDS011;9058;52.018;4.202;2023-03-24T06:32:39;18.92;;;3.95;;
17864;SDS011;9058;52.018;4.202;2023-03-24T06:35:06;23.95;;;4.82;;
17864;SDS011;9058;52.018;4.202;2023-03-24T06:37:33;32.50;;;4.65;;
17864;SDS011;9058;52.018;4.202;2023-03-24T06:40:00;27.13;;;5.07;;
17864;SDS011;9058;52.018;4.202;2023-03-24T06:42:26;23.15;;;4.13;;
17864;SDS011;9058;52.018;4.202;2023-03-24T06:44:53;25.30;;;4.50;;
17864;SDS011;9058;52.018;4.202;2023-03-24T06:47:21;30.38;;;7.15;;
17864;SDS011;9058;52.018;4.202;2023-03-24T06:49:47;22.92;;;4.85;;
17864;SDS011;9058;52.018;4.202;2023-03-24T06:52:13;36.03;;;5.07;;
17864;SDS011;9058;52.018;4.202;2023-03-24T06:54:41;22.23;;;5.00;;
17864;SDS011;9058;52.018;4.202;2023-03-24T06:57:07;22.60;;;3.80;;
17864;SDS011;9058;52.018;4.202;2023-03-24T06:59:34;22.58;;;4.60;;
17864;SDS011;9058;52.018;4.202;2023-03-24T07:02:00;21.33;;;4.50;;
17864;SDS011;9058;52.018;4.202;2023-03-24T07:04:29;24.92;;;5.57;;
17864;SDS011;9058;52.018;4.202;2023-03-24T07:07:00;17.45;;;4.68;;
17864;SDS011;9058;52.018;4.202;2023-03-24T07:09:27;29.40;;;5.25;;
17864;SDS011;9058;52.018;4.202;2023-03-24T07:11:53;20.95;;;3.75;;
17864;SDS011;9058;52.018;4.202;2023-03-24T07:14:19;22.67;;;4.78;;
17864;SDS011;9058;52.018;4.202;2023-03-24T07:16:50;24.02;;;5.68;;
17864;SDS011;9058;52.018;4.202;2023-03-24T07:19:17;21.00;;;4.43;;
17864;SDS011;9058;52.018;4.202;2023-03-24T07:21:45;21.05;;;3.63;;
17864;SDS011;9058;52.018;4.202;2023-03-24T07:24:14;20.02;;;5.47;;
17864;SDS011;9058;52.018;4.202;2023-03-24T07:26:41;28.08;;;4.50;;
17864;SDS011;9058;52.018;4.202;2023-03-24T07:29:07;18.92;;;3.92;;
17864;SDS011;9058;52.018;4.202;2023-03-24T07:31:34;20.60;;;3.88;;
17864;SDS011;9058;52.018;4.202;2023-03-24T07:34:02;17.98;;;3.72;;
17864;SDS011;9058;52.018;4.202;2023-03-24T07:36:28;21.23;;;3.88;;
17864;SDS011;9058;52.018;4.202;2023-03-24T07:38:56;18.55;;;3.85;;
17864;SDS011;9058;52.018;4.202;2023-03-24T07:41:22;17.85;;;3.78;;
17864;SDS011;9058;52.018;4.202;2023-03-24T07:43:50;21.83;;;4.25;;
17864;SDS011;9058;52.018;4.202;2023-03-24T07:46:17;18.58;;;4.82;;
17864;SDS011;9058;52.018;4.202;2023-03-24T07:48:43;18.00;;;2.92;;
17864;SDS011;9058;52.018;4.202;2023-03-24T07:51:10;17.52;;;2.80;;
17864;SDS011;9058;52.018;4.202;2023-03-24T07:53:37;11.50;;;2.90;;
17864;SDS011;9058;52.018;4.202;2023-03-24T07:56:06;19.65;;;3.65;;
17864;SDS011;9058;52.018;4.202;2023-03-24T07:58:32;19.33;;;4.00;;
17864;SDS011;9058;52.018;4.202;2023-03-24T08:00:58;12.18;;;3.25;;
17864;SDS011;9058;52.018;4.202;2023-03-24T08:03:25;21.75;;;3.80;;
17864;SDS011;9058;52.018;4.202;2023-03-24T08:05:52;23.58;;;4.10;;
17864;SDS011;9058;52.018;4.202;2023-03-24T08:08:19;11.43;;;3.22;;
17864;SDS011;9058;52.018;4.202;2023-03-24T08:10:46;12.95;;;2.60;;
17864;SDS011;9058;52.018;4.202;2023-03-24T08:13:15;11.45;;;2.78;;
17864;SDS011;9058;52.018;4.202;2023-03-24T08:15:42;18.10;;;3.72;;
17864;SDS011;9058;52.018;4.202;2023-03-24T08:18:08;14.45;;;3.75;;
17864;SDS011;9058;52.018;4.202;2023-03-24T08:20:35;12.85;;;2.80;;
17864;SDS011;9058;52.018;4.202;2023-03-24T08:23:02;16.13;;;3.13;;
17864;SDS011;9058;52.018;4.202;2023-03-24T08:25:28;11.68;;;3.15;;
17864;SDS011;9058;52.018;4.202;2023-03-24T08:27:55;17.08;;;3.45;;
17864;SDS011;9058;52.018;4.202;2023-03-24T08:30:23;16.95;;;3.10;;
17864;SDS011;9058;52.018;4.202;2023-03-24T08:32:51;19.05;;;4.18;;
17864;SDS011;9058;52.018;4.202;2023-03-24T08:35:18;9.77;;;2.60;;
17864;SDS011;9058;52.018;4.202;2023-03-24T08:37:45;11.65;;;2.20;;
17864;SDS011;9058;52.018;4.202;2023-03-24T08:40:13;14.40;;;2.90;;
17864;SDS011;9058;52.018;4.202;2023-03-24T08:42:43;14.00;;;3.30;;
17864;SDS011;9058;52.018;4.202;2023-03-24T08:45:10;13.98;;;2.72;;
17864;SDS011;9058;52.018;4.202;2023-03-24T08:47:39;9.68;;;2.30;;
17864;SDS011;9058;52.018;4.202;2023-03-24T08:50:06;13.18;;;2.90;;
17864;SDS011;9058;52.018;4.202;2023-03-24T08:52:33;13.70;;;3.30;;
17864;SDS011;9058;52.018;4.202;2023-03-24T08:54:59;15.02;;;3.25;;
17864;SDS011;9058;52.018;4.202;2023-03-24T08:57:26;18.33;;;2.90;;
17864;SDS011;9058;52.018;4.202;2023-03-24T08:59:52;17.67;;;4.28;;
17864;SDS011;9058;52.018;4.202;2023-03-24T09:02:19;14.73;;;2.78;;
17864;SDS011;9058;52.018;4.202;2023-03-24T09:04:46;14.38;;;3.10;;
17864;SDS011;9058;52.018;4.202;2023-03-24T09:07:13;21.02;;;3.60;;
17864;SDS011;9058;52.018;4.202;2023-03-24T09:09:41;17.75;;;3.53;;
17864;SDS011;9058;52.018;4.202;2023-03-24T09:12:07;12.15;;;3.33;;
17864;SDS011;9058;52.018;4.202;2023-03-24T09:14:34;12.27;;;3.10;;
17864;SDS011;9058;52.018;4.202;2023-03-24T09:17:01;12.40;;;3.58;;
17864;SDS011;9058;52.018;4.202;2023-03-24T09:19:27;11.70;;;2.67;;
17864;SDS011;9058;52.018;4.202;2023-03-24T09:21:56;17.90;;;3.25;;
17864;SDS011;9058;52.018;4.202;2023-03-24T09:24:22;17.60;;;3.40;;
17864;SDS011;9058;52.018;4.202;2023-03-24T09:26:49;17.17;;;3.33;;
17864;SDS011;9058;52.018;4.202;2023-03-24T09:29:15;13.57;;;2.95;;
17864;SDS011;9058;52.018;4.202;2023-03-24T09:31:42;14.13;;;3.88;;
17864;SDS011;9058;52.018;4.202;2023-03-24T09:34:09;17.63;;;4.05;;
17864;SDS011;9058;52.018;4.202;2023-03-24T09:36:35;14.48;;;3.55;;
17864;SDS011;9058;52.018;4.202;2023-03-24T09:39:04;14.05;;;3.63;;
17864;SDS011;9058;52.018;4.202;2023-03-24T09:41:30;19.33;;;3.08;;
17864;SDS011;9058;52.018;4.202;2023-03-24T09:43:57;17.92;;;3.70;;
17864;SDS011;9058;52.018;4.202;2023-03-24T09:46:25;10.15;;;2.75;;
17864;SDS011;9058;52.018;4.202;2023-03-24T09:48:53;16.65;;;4.05;;
17864;SDS011;9058;52.018;4.202;2023-03-24T09:51:21;12.52;;;3.65;;
17864;SDS011;9058;52.018;4.202;2023-03-24T09:53:48;8.80;;;2.80;;
17864;SDS011;9058;52.018;4.202;2023-03-24T09:56:21;18.48;;;3.38;;
17864;SDS011;9058;52.018;4.202;2023-03-24T09:58:49;10.25;;;3.70;;
17864;SDS011;9058;52.018;4.202;2023-03-24T10:01:16;14.00;;;3.78;;
17864;SDS011;9058;52.018;4.202;2023-03-24T10:03:43;13.80;;;2.88;;
17864;SDS011;9058;52.018;4.202;2023-03-24T10:06:10;18.17;;;3.30;;
17864;SDS011;9058;52.018;4.202;2023-03-24T10:08:40;9.90;;;2.83;;
17864;SDS011;9058;52.018;4.202;2023-03-24T10:11:08;13.85;;;3.08;;
17864;SDS011;9058;52.018;4.202;2023-03-24T10:13:42;15.70;;;3.08;;
17864;SDS011;9058;52.018;4.202;2023-03-24T10:16:13;18.17;;;4.30;;
17864;SDS011;9058;52.018;4.202;2023-03-24T10:18:41;10.70;;;2.60;;
17864;SDS011;9058;52.018;4.202;2023-03-24T10:21:13;20.98;;;4.97;;
17864;SDS011;9058;52.018;4.202;2023-03-24T10:23:44;17.40;;;3.63;;
17864;SDS011;9058;52.018;4.202;2023-03-24T10:26:20;15.45;;;3.60;;
17864;SDS011;9058;52.018;4.202;2023-03-24T10:28:51;11.32;;;2.83;;
17864;SDS011;9058;52.018;4.202;2023-03-24T10:31:24;13.07;;;2.95;;
17864;SDS011;9058;52.018;4.202;2023-03-24T10:33:52;13.23;;;3.03;;
17864;SDS011;9058;52.018;4.202;2023-03-24T10:36:19;9.82;;;2.85;;
17864;SDS011;9058;52.018;4.202;2023-03-24T10:38:49;17.65;;;3.47;;
17864;SDS011;9058;52.018;4.202;2023-03-24T10:41:17;13.73;;;3.40;;
17864;SDS011;9058;52.018;4.202;2023-03-24T10:43:43;11.80;;;2.80;;
17864;SDS011;9058;52.018;4.202;2023-03-24T10:46:13;14.02;;;2.90;;
17864;SDS011;9058;52.018;4.202;2023-03-24T10:48:42;16.35;;;2.95;;
17864;SDS011;9058;52.018;4.202;2023-03-24T10:51:14;12.48;;;3.00;;
17864;SDS011;9058;52.018;4.202;2023-03-24T10:53:41;12.68;;;3.08;;
17864;SDS011;9058;52.018;4.202;2023-03-24T10:56:10;12.10;;;2.47;;
17864;SDS011;9058;52.018;4.202;2023-03-24T10:58:38;11.50;;;2.35;;
17864;SDS011;9058;52.018;4.202;2023-03-24T11:01:08;13.00;;;2.47;;
17864;SDS011;9058;52.018;4.202;2023-03-24T11:03:46;13.65;;;2.50;;
17864;SDS011;9058;52.018;4.202;2023-03-24T11:06:13;8.88;;;1.95;;
17864;SDS011;9058;52.018;4.202;2023-03-24T11:08:41;13.43;;;2.85;;
17864;SDS011;9058;52.018;4.202;2023-03-24T11:11:13;8.00;;;2.38;;
17864;SDS011;9058;52.018;4.202;2023-03-24T11:13:40;5.40;;;2.03;;
17864;SDS011;9058;52.018;4.202;2023-03-24T11:16:09;9.60;;;2.50;;
17864;SDS011;9058;52.018;4.202;2023-03-24T11:18:37;8.70;;;1.60;;
17864;SDS011;9058;52.018;4.202;2023-03-24T11:21:20;10.52;;;2.80;;
17864;SDS011;9058;52.018;4.202;2023-03-24T11:23:47;6.57;;;1.92;;
17864;SDS011;9058;52.018;4.202;2023-03-24T11:26:15;7.38;;;2.28;;
17864;SDS011;9058;52.018;4.202;2023-03-24T11:28:44;10.15;;;2.42;;
17864;SDS011;9058;52.018;4.202;2023-03-24T11:31:12;13.30;;;2.47;;
17864;SDS011;9058;52.018;4.202;2023-03-24T11:33:44;9.10;;;2.45;;
17864;SDS011;9058;52.018;4.202;2023-03-24T11:42:04;10.70;;;2.47;;
17864;SDS011;9058;52.018;4.202;2023-03-24T11:44:31;9.93;;;2.38;;
17864;SDS011;9058;52.018;4.202;2023-03-24T11:46:59;11.57;;;2.20;;
17864;SDS011;9058;52.018;4.202;2023-03-24T11:49:29;21.92;;;4.45;;
17864;SDS011;9058;52.018;4.202;2023-03-24T11:51:57;10.75;;;2.80;;
17864;SDS011;9058;52.018;4.202;2023-03-24T11:54:25;14.80;;;2.45;;
17864;SDS011;9058;52.018;4.202;2023-03-24T11:56:53;16.17;;;2.80;;
17864;SDS011;9058;52.018;4.202;2023-03-24T11:59:32;8.85;;;2.08;;
17864;SDS011;9058;52.018;4.202;2023-03-24T12:02:01;12.68;;;2.53;;
17864;SDS011;9058;52.018;4.202;2023-03-24T12:04:34;14.43;;;2.97;;
17864;SDS011;9058;52.018;4.202;2023-03-24T12:07:10;15.43;;;3.33;;
17864;SDS011;9058;52.018;4.202;2023-03-24T12:09:40;10.45;;;2.65;;
17864;SDS011;9058;52.018;4.202;2023-03-24T12:12:15;16.20;;;2.65;;
17864;SDS011;9058;52.018;4.202;2023-03-24T12:14:48;15.90;;;3.25;;
17864;SDS011;9058;52.018;4.202;2023-03-24T12:17:16;14.25;;;2.72;;
17864;SDS011;9058;52.018;4.202;2023-03-24T12:19:56;12.85;;;2.80;;
17864;SDS011;9058;52.018;4.202;2023-03-24T12:22:31;12.55;;;2.83;;
17864;SDS011;9058;52.018;4.202;2023-03-24T12:25:06;12.95;;;2.42;;
17864;SDS011;9058;52.018;4.202;2023-03-24T12:27:40;11.70;;;2.15;;
17864;SDS011;9058;52.018;4.202;2023-03-24T12:30:13;17.42;;;3.08;;
17864;SDS011;9058;52.018;4.202;2023-03-24T12:32:46;14.45;;;2.72;;
17864;SDS011;9058;52.018;4.202;2023-03-24T12:35:20;15.10;;;3.53;;
17864;SDS011;9058;52.018;4.202;2023-03-24T12:37:57;14.55;;;3.45;;
17864;SDS011;9058;52.018;4.202;2023-03-24T12:40:37;7.60;;;2.25;;
17864;SDS011;9058;52.018;4.202;2023-03-24T12:43:10;15.90;;;3.33;;
17864;SDS011;9058;52.018;4.202;2023-03-24T12:45:43;8.55;;;2.42;;
17864;SDS011;9058;52.018;4.202;2023-03-24T12:48:17;12.20;;;3.05;;
17864;SDS011;9058;52.018;4.202;2023-03-24T12:50:49;6.85;;;2.13;;
17864;SDS011;9058;52.018;4.202;2023-03-24T12:53:28;11.48;;;2.53;;
17864;SDS011;9058;52.018;4.202;2023-03-24T12:56:01;10.25;;;3.08;;
17864;SDS011;9058;52.018;4.202;2023-03-24T12:58:32;14.07;;;3.10;;
17864;SDS011;9058;52.018;4.202;2023-03-24T13:01:06;11.85;;;2.63;;
17864;SDS011;9058;52.018;4.202;2023-03-24T13:03:37;14.48;;;3.20;;
17864;SDS011;9058;52.018;4.202;2023-03-24T13:06:10;11.45;;;2.78;;
17864;SDS011;9058;52.018;4.202;2023-03-24T13:08:38;14.07;;;3.28;;
17864;SDS011;9058;52.018;4.202;2023-03-24T13:11:09;9.98;;;2.50;;
17864;SDS011;9058;52.018;4.202;2023-03-24T13:13:37;16.02;;;2.97;;
17864;SDS011;9058;52.018;4.202;2023-03-24T13:16:08;9.10;;;2.17;;
17864;SDS011;9058;52.018;4.202;2023-03-24T13:18:37;8.85;;;2.45;;
17864;SDS011;9058;52.018;4.202;2023-03-24T13:21:05;13.52;;;3.45;;
17864;SDS011;9058;52.018;4.202;2023-03-24T13:23:37;16.13;;;3.33;;
17864;SDS011;9058;52.018;4.202;2023-03-24T13:26:08;11.18;;;2.85;;
17864;SDS011;9058;52.018;4.202;2023-03-24T13:28:37;14.00;;;2.97;;
17864;SDS011;9058;52.018;4.202;2023-03-24T13:31:07;15.10;;;3.38;;
17864;SDS011;9058;52.018;4.202;2023-03-24T13:33:34;12.45;;;2.95;;
17864;SDS011;9058;52.018;4.202;2023-03-24T13:36:07;11.43;;;2.78;;
17864;SDS011;9058;52.018;4.202;2023-03-24T13:38:37;11.93;;;2.65;;
17864;SDS011;9058;52.018;4.202;2023-03-24T13:41:06;14.52;;;3.40;;
17864;SDS011;9058;52.018;4.202;2023-03-24T13:43:36;12.40;;;3.08;;
17864;SDS011;9058;52.018;4.202;2023-03-24T13:46:03;11.77;;;2.40;;
17864;SDS011;9058;52.018;4.202;2023-03-24T13:48:34;9.82;;;3.45;;
17864;SDS011;9058;52.018;4.202;2023-03-24T13:51:02;12.10;;;3.40;;
17864;SDS011;9058;52.018;4.202;2023-03-24T13:53:33;13.75;;;2.65;;
17864;SDS011;9058;52.018;4.202;2023-03-24T13:56:01;6.97;;;2.13;;
17864;SDS011;9058;52.018;4.202;2023-03-24T13:58:43;13.50;;;2.35;;
17864;SDS011;9058;52.018;4.202;2023-03-24T14:01:15;13.02;;;2.78;;
17864;SDS011;9058;52.018;4.202;2023-03-24T14:03:44;12.52;;;2.67;;
17864;SDS011;9058;52.018;4.202;2023-03-24T14:06:13;13.63;;;3.30;;
17864;SDS011;9058;52.018;4.202;2023-03-24T14:08:42;14.60;;;2.70;;
17864;SDS011;9058;52.018;4.202;2023-03-24T14:13:51;20.10;;;4.00;;
17864;SDS011;9058;52.018;4.202;2023-03-24T14:16:26;12.43;;;2.17;;
17864;SDS011;9058;52.018;4.202;2023-03-24T14:19:16;13.13;;;3.28;;
17864;SDS011;9058;52.018;4.202;2023-03-24T14:21:43;11.70;;;2.63;;
17864;SDS011;9058;52.018;4.202;2023-03-24T14:24:14;12.43;;;3.28;;
17864;SDS011;9058;52.018;4.202;2023-03-24T14:26:41;12.10;;;3.65;;
17864;SDS011;9058;52.018;4.202;2023-03-24T14:29:25;10.95;;;3.08;;
17864;SDS011;9058;52.018;4.202;2023-03-24T14:32:00;15.82;;;2.80;;
17864;SDS011;9058;52.018;4.202;2023-03-24T14:34:28;14.43;;;3.80;;
17864;SDS011;9058;52.018;4.202;2023-03-24T14:36:56;17.45;;;3.40;;
17864;SDS011;9058;52.018;4.202;2023-03-24T14:41:59;21.35;;;3.45;;
17864;SDS011;9058;52.018;4.202;2023-03-24T14:47:15;18.77;;;3.45;;
17864;SDS011;9058;52.018;4.202;2023-03-24T14:49:46;11.57;;;2.65;;
17864;SDS011;9058;52.018;4.202;2023-03-24T14:52:15;13.38;;;3.28;;
17864;SDS011;9058;52.018;4.202;2023-03-24T14:54:43;9.60;;;2.67;;
17864;SDS011;9058;52.018;4.202;2023-03-24T14:57:12;14.18;;;3.13;;
17864;SDS011;9058;52.018;4.202;2023-03-24T14:59:44;13.18;;;3.22;;
17864;SDS011;9058;52.018;4.202;2023-03-24T15:02:15;11.27;;;2.10;;
17864;SDS011;9058;52.018;4.202;2023-03-24T15:07:27;9.98;;;2.40;;
17864;SDS011;9058;52.018;4.202;2023-03-24T15:09:54;11.63;;;2.30;;
17864;SDS011;9058;52.018;4.202;2023-03-24T15:12:20;15.07;;;3.75;;
17864;SDS011;9058;52.018;4.202;2023-03-24T15:14:47;13.13;;;3.05;;
17864;SDS011;9058;52.018;4.202;2023-03-24T15:17:16;12.23;;;3.00;;
17864;SDS011;9058;52.018;4.202;2023-03-24T15:19:43;12.30;;;2.40;;
17864;SDS011;9058;52.018;4.202;2023-03-24T15:22:12;10.68;;;2.28;;